Time;durP1;ratioP1;P1;durP2;ratioP2;P2;SDS_P1;SDS_P2;PMS_P1;PMS_P2;Temp;Humidity;BMP_temperature;BMP_pressure;BME280_temperature;BME280_humidity;BME280_pressure;Samples;Min_cycle;Max_cycle;Signal;HPM_P1;HPM_P2
2023/03/25 00:00:20;;;;;;;;;;;;;;;7.63;77.30;94959.75;5055968;28;1091;-67
2023/03/25 00:02:48;;;;;;;;;;;;;;;7.56;76.57;94953.31;5055966;28;951;-67
2023/03/25 00:05:15;;;;;;;;;;;;;;;7.31;79.21;94960.16;5055983;28;969;-67
2023/03/25 00:07:42;;;;;;;;;;;;;;;7.56;77.96;94966.63;5055573;28;1037;-67
2023/03/25 00:10:08;;;;;;;;;;;;;;;7.78;77.78;94962.75;5055517;28;1034;-67
2023/03/25 00:12:34;;;;;;;;;;;;;;;7.65;76.69;94956.09;5054279;28;1053;-67
2023/03/25 00:15:00;;;;;;;;;;;;;;;7.68;76.70;94963.78;5055760;28;1043;-67
2023/03/25 00:17:27;;;;;;;;;;;;;;;7.73;77.35;94958.84;5054403;28;1993;-67
2023/03/25 00:19:54;;;;;;;;;;;;;;;7.63;76.99;94967.72;5055821;28;981;-67
2023/03/25 00:22:21;;;;;;;;;;;;;;;7.50;76.38;94953.94;5054405;28;1028;-67
2023/03/25 00:24:47;;;;;;;;;;;;;;;7.49;76.37;94956.72;5055124;28;1364;-66
2023/03/25 00:27:16;;;;;;;;;;;;;;;7.31;77.11;94948.69;5055174;28;1056;-67
2023/03/25 00:29:42;;;;;;;;;;;;;;;7.08;78.66;94949.06;5054308;28;969;-67
2023/03/25 00:32:09;;;;;;;;;;;;;;;7.20;78.54;94942.56;5055364;28;977;-67
2023/03/25 00:34:40;;;;;;;;;;;;;;;7.27;77.86;94937.50;5054281;28;966;-67
2023/03/25 00:37:08;;;;;;;;;;;;;;;7.29;77.81;94945.34;5055223;28;1910;-66
2023/03/25 00:39:34;;;;;;;;;;;;;;;7.08;78.22;94934.94;5054971;28;1052;-67
2023/03/25 00:42:00;;;;;;;;;;;;;;;7.19;78.70;94940.03;5053837;28;1037;-67
2023/03/25 00:44:27;;;;;;;;;;;;;;;7.20;78.51;94941.72;5053939;28;985;-67
2023/03/25 00:46:53;;;;;;;;;;;;;;;7.20;78.00;94947.88;5055254;28;1016;-67
2023/03/25 00:49:23;;;;;;;;;;;;;;;7.17;78.04;94940.22;5054602;28;1034;-68
2023/03/25 00:51:50;;;;;;;;;;;;;;;6.91;78.82;94937.34;5055015;28;815;-68
2023/03/25 00:54:17;;;;;;;;;;;;;;;7.03;78.42;94938.00;5054920;28;969;-68
2023/03/25 00:56:43;;;;;;;;;;;;;;;7.17;78.26;94936.69;5053493;28;997;-68
2023/03/25 00:59:09;;;;;;;;;;;;;;;7.20;77.98;94929.25;5054894;28;1902;-68
2023/03/25 01:01:38;;;;;;;;;;;;;;;7.22;78.55;94932.59;5054635;28;1125;-68
2023/03/25 01:04:10;;;;;;;;;;;;;;;6.96;77.70;94932.44;5054338;28;961;-68
2023/03/25 01:06:40;;;;;;;;;;;;;;;6.68;79.39;94930.66;5054674;28;1017;-68
2023/03/25 01:09:07;;;;;;;;;;;;;;;6.87;79.58;94919.16;5054387;28;949;-68
2023/03/25 01:11:33;;;;;;;;;;;;;;;7.01;79.26;94918.69;5054712;28;1023;-68
2023/03/25 01:14:00;;;;;;;;;;;;;;;6.77;78.17;94927.16;5054747;28;1039;-68
2023/03/25 01:16:27;;;;;;;;;;;;;;;6.49;79.84;94924.41;5054277;28;1100;-68
2023/03/25 01:18:53;;;;;;;;;;;;;;;6.62;79.47;94918.78;5054333;28;2230;-68
2023/03/25 01:21:20;;;;;;;;;;;;;;;6.75;79.79;94914.00;5054240;28;945;-68
2023/03/25 01:23:46;;;;;;;;;;;;;;;6.60;77.61;94920.75;5052845;28;1304;-68
2023/03/25 01:26:12;;;;;;;;;;;;;;;6.25;79.76;94908.91;5054067;28;1079;-67
2023/03/25 01:28:39;;;;;;;;;;;;;;;6.11;80.08;94894.25;5054359;28;1124;-68
2023/03/25 01:31:06;;;;;;;;;;;;;;;6.26;80.47;94889.38;5054381;28;1059;-68
2023/03/25 01:33:33;;;;;;;;;;;;;;;6.34;80.15;94891.31;5053988;28;1061;-68
2023/03/25 01:35:59;;;;;;;;;;;;;;;6.40;79.20;94890.75;5052878;28;1028;-67
2023/03/25 01:38:26;;;;;;;;;;;;;;;6.38;79.04;94884.75;5053619;28;1981;-67
2023/03/25 01:40:52;;;;;;;;;;;;;;;6.35;78.96;94890.31;5054213;28;1001;-68
2023/03/25 01:43:18;;;;;;;;;;;;;;;6.20;80.15;94889.91;5052588;28;1033;-68
2023/03/25 01:45:45;;;;;;;;;;;;;;;6.33;79.90;94887.81;5054101;28;1014;-68
2023/03/25 01:48:14;;;;;;;;;;;;;;;6.33;79.80;94890.44;5053976;28;1005;-68
2023/03/25 01:50:42;;;;;;;;;;;;;;;6.35;79.44;94893.81;5054003;28;989;-68
2023/03/25 01:53:09;;;;;;;;;;;;;;;6.41;79.04;94889.75;5053510;28;1034;-68
2023/03/25 01:55:36;;;;;;;;;;;;;;;6.52;78.60;94883.44;5053865;28;965;-68
2023/03/25 01:58:06;;;;;;;;;;;;;;;6.05;79.45;94879.72;5053803;28;1910;-68
2023/03/25 02:00:32;;;;;;;;;;;;;;;6.00;80.47;94873.16;5053588;28;921;-68
2023/03/25 02:02:59;;;;;;;;;;;;;;;6.05;79.90;94881.53;5052639;28;1001;-68
2023/03/25 02:05:43;;;;;;;;;;;;;;;5.98;79.88;94869.81;5053400;28;1009;-68
2023/03/25 02:08:09;;;;;;;;;;;;;;;5.86;79.91;94877.03;5053239;28;1124;-68
2023/03/25 02:10:36;;;;;;;;;;;;;;;5.68;81.37;94875.06;5053589;28;1040;-68
2023/03/25 02:13:05;;;;;;;;;;;;;;;5.66;82.04;94874.38;5053661;28;985;-68
2023/03/25 02:15:36;;;;;;;;;;;;;;;5.89;81.10;94876.75;5051376;28;962;-68
2023/03/25 02:18:19;;;;;;;;;;;;;;;6.01;80.60;94873.03;5053171;28;1910;-68
2023/03/25 02:20:48;;;;;;;;;;;;;;;5.91;80.91;94885.41;5053462;28;985;-68
2023/03/25 02:23:20;;;;;;;;;;;;;;;5.72;82.85;94869.50;5053197;28;1320;-67
2023/03/25 02:25:53;;;;;;;;;;;;;;;5.90;81.61;94888.19;5053180;28;1235;-68
2023/03/25 02:28:24;;;;;;;;;;;;;;;6.03;80.75;94884.34;5051909;28;1033;-68
2023/03/25 02:31:00;;;;;;;;;;;;;;;6.11;79.84;94874.81;5053130;28;1077;-68
2023/03/25 02:33:58;;;;;;;;;;;;;;;5.82;80.21;94880.94;5053381;28;1021;-68
2023/03/25 02:36:44;;;;;;;;;;;;;;;5.84;80.43;94882.50;5019280;28;1306;-67
2023/03/25 02:39:19;;;;;;;;;;;;;;;5.70;81.37;94884.72;5052828;28;1983;-68
2023/03/25 02:41:49;;;;;;;;;;;;;;;5.65;80.26;94878.00;5052998;28;1077;-68
2023/03/25 02:44:21;;;;;;;;;;;;;;;5.30;81.51;94875.00;5053155;28;1044;-68
2023/03/25 02:46:50;;;;;;;;;;;;;;;5.44;81.94;94877.25;5053322;28;981;-68
2023/03/25 02:49:24;;;;;;;;;;;;;;;5.64;81.89;94876.31;5053127;28;1009;-68
2023/03/25 02:52:05;;;;;;;;;;;;;;;5.67;80.99;94870.75;5053136;28;952;-68
2023/03/25 02:54:32;;;;;;;;;;;;;;;5.66;81.85;94887.63;5053031;28;1113;-68
2023/03/25 02:56:59;;;;;;;;;;;;;;;5.88;81.82;94880.41;5052728;28;1997;-68
2023/03/25 02:59:28;;;;;;;;;;;;;;;5.76;80.98;94870.88;5053040;28;962;-68
2023/03/25 03:01:59;;;;;;;;;;;;;;;5.65;81.02;94870.06;5051824;28;1001;-68
2023/03/25 03:04:25;;;;;;;;;;;;;;;5.75;81.51;94869.19;5051725;28;1008;-68
2023/03/25 03:06:51;;;;;;;;;;;;;;;5.90;80.43;94859.00;5051806;28;962;-68
2023/03/25 03:09:38;;;;;;;;;;;;;;;5.91;79.38;94858.88;5052902;28;1026;-68
2023/03/25 03:12:13;;;;;;;;;;;;;;;5.86;80.34;94861.09;5052800;28;1057;-68
2023/03/25 03:14:45;;;;;;;;;;;;;;;5.83;80.15;94870.19;5052640;28;1043;-68
2023/03/25 03:17:18;;;;;;;;;;;;;;;5.49;81.26;94861.78;5052708;28;1989;-68
2023/03/25 03:20:14;;;;;;;;;;;;;;;5.39;82.04;94864.41;5052802;28;1112;-68
2023/03/25 03:23:09;;;;;;;;;;;;;;;5.29;83.74;94858.25;4999497;28;1195;-67
2023/03/25 03:25:39;;;;;;;;;;;;;;;5.70;82.62;94866.16;5027792;28;1300;-68
2023/03/25 03:28:11;;;;;;;;;;;;;;;5.87;81.76;94866.28;5035889;28;1044;-68
2023/03/25 03:30:45;;;;;;;;;;;;;;;5.94;80.99;94874.53;5036467;28;1097;-68
2023/03/25 03:33:37;;;;;;;;;;;;;;;5.99;81.13;94867.00;5036622;28;1051;-67
2023/03/25 03:36:06;;;;;;;;;;;;;;;5.71;79.58;94873.09;5034519;28;1235;-67
2023/03/25 03:38:37;;;;;;;;;;;;;;;5.31;81.21;94874.84;5036152;28;1905;-67
2023/03/25 03:41:06;;;;;;;;;;;;;;;5.22;82.47;94871.22;5036578;28;950;-68
2023/03/25 03:43:46;;;;;;;;;;;;;;;5.37;81.93;94871.69;5036384;28;966;-68
2023/03/25 03:46:22;;;;;;;;;;;;;;;5.31;81.64;94866.06;5036402;28;965;-68
2023/03/25 03:48:50;;;;;;;;;;;;;;;5.24;82.64;94874.56;5036106;28;1021;-68
2023/03/25 03:51:20;;;;;;;;;;;;;;;5.18;83.37;94877.75;5034686;28;1077;-67
2023/03/25 03:53:52;;;;;;;;;;;;;;;5.31;83.27;94874.84;5036171;28;974;-68
2023/03/25 03:56:21;;;;;;;;;;;;;;;5.45;82.36;94879.78;5035845;28;1045;-68
2023/03/25 03:58:52;;;;;;;;;;;;;;;5.59;81.73;94875.06;5036163;28;2001;-67
2023/03/25 04:01:29;;;;;;;;;;;;;;;5.67;82.11;94878.72;5035815;28;1034;-67
2023/03/25 04:03:55;;;;;;;;;;;;;;;5.58;81.02;94878.69;5068001;28;985;-67
2023/03/25 04:06:24;;;;;;;;;;;;;;;5.28;81.38;94883.91;5034661;28;1536;-67
2023/03/25 04:08:50;;;;;;;;;;;;;;;5.22;81.49;94879.16;5035985;28;1020;-67
2023/03/25 04:11:22;;;;;;;;;;;;;;;5.09;82.00;94879.41;5035949;28;981;-68
2023/03/25 04:13:51;;;;;;;;;;;;;;;5.07;82.34;94875.22;5067892;28;1051;-68
2023/03/25 04:16:17;;;;;;;;;;;;;;;5.14;82.43;94876.34;5035498;28;1120;-67
2023/03/25 04:18:46;;;;;;;;;;;;;;;5.09;83.09;94874.09;5035491;28;1910;-67
2023/03/25 04:21:14;;;;;;;;;;;;;;;5.03;83.74;94876.47;5034195;28;1138;-67
2023/03/25 04:23:40;;;;;;;;;;;;;;;5.11;83.58;94871.31;5041591;28;1246;-68
2023/03/25 04:26:06;;;;;;;;;;;;;;;5.09;83.27;94870.63;5054006;28;1129;-67
2023/03/25 04:28:32;;;;;;;;;;;;;;;5.13;82.99;94879.13;5054210;28;1017;-68
2023/03/25 04:30:59;;;;;;;;;;;;;;;5.22;82.46;94873.88;5055416;28;962;-67
2023/03/25 04:33:25;;;;;;;;;;;;;;;5.39;81.90;94872.38;5055229;28;1032;-67
2023/03/25 04:35:51;;;;;;;;;;;;;;;5.52;81.13;94873.91;5055339;28;1043;-67
2023/03/25 04:38:18;;;;;;;;;;;;;;;5.55;80.88;94878.97;5054313;28;1987;-67
2023/03/25 04:40:48;;;;;;;;;;;;;;;5.35;81.27;94884.22;5037317;28;1359;-68
2023/03/25 04:43:15;;;;;;;;;;;;;;;5.25;81.11;94884.22;5055203;28;1035;-68
2023/03/25 04:45:47;;;;;;;;;;;;;;;4.91;82.37;94883.63;5055280;28;1015;-68
2023/03/25 04:48:23;;;;;;;;;;;;;;;4.69;84.15;94885.50;5054864;28;1037;-67
2023/03/25 04:50:50;;;;;;;;;;;;;;;4.94;84.12;94875.44;5054674;28;1012;-68
2023/03/25 04:53:17;;;;;;;;;;;;;;;5.31;82.93;94879.31;5053546;28;948;-68
2023/03/25 04:55:46;;;;;;;;;;;;;;;5.53;82.57;94889.69;5054744;28;1317;-68
2023/03/25 04:58:14;;;;;;;;;;;;;;;5.79;81.54;94891.84;5054700;28;1913;-68
2023/03/25 05:00:41;;;;;;;;;;;;;;;5.86;80.42;94880.53;5054746;28;1018;-68
2023/03/25 05:03:08;;;;;;;;;;;;;;;6.06;80.68;94883.22;5054556;28;909;-68
2023/03/25 05:05:34;;;;;;;;;;;;;;;6.32;79.76;94879.97;5054325;28;1107;-69
2023/03/25 05:08:00;;;;;;;;;;;;;;;6.52;79.41;94891.41;5054479;28;1092;-69
2023/03/25 05:10:29;;;;;;;;;;;;;;;6.57;79.13;94889.19;5054652;28;1052;-68
2023/03/25 05:13:03;;;;;;;;;;;;;;;6.61;78.76;94890.56;5054816;28;961;-68
2023/03/25 05:15:31;;;;;;;;;;;;;;;6.72;79.22;94885.09;5054356;28;1015;-68
2023/03/25 05:17:57;;;;;;;;;;;;;;;7.13;78.10;94880.34;5054544;28;1997;-68
2023/03/25 05:20:23;;;;;;;;;;;;;;;7.47;76.92;94892.19;5054121;28;1025;-68
2023/03/25 05:22:52;;;;;;;;;;;;;;;7.68;76.53;94891.94;5054431;28;1035;-69
2023/03/25 05:25:21;;;;;;;;;;;;;;;7.71;76.64;94902.28;5054124;28;1233;-68
2023/03/25 05:27:47;;;;;;;;;;;;;;;7.69;75.47;94905.09;5054170;28;1104;-68
2023/03/25 05:30:14;;;;;;;;;;;;;;;7.74;76.37;94901.97;5053152;28;958;-68
2023/03/25 05:32:41;;;;;;;;;;;;;;;7.82;77.39;94910.06;5054284;28;1009;-68
2023/03/25 05:35:07;;;;;;;;;;;;;;;8.03;76.56;94907.13;5053985;28;1182;-68
2023/03/25 05:37:33;;;;;;;;;;;;;;;8.37;75.46;94909.91;5052666;28;1979;-68
2023/03/25 05:39:59;;;;;;;;;;;;;;;8.62;74.23;94918.16;5054065;28;954;-68
2023/03/25 05:42:25;;;;;;;;;;;;;;;8.70;74.04;94914.72;5053987;28;984;-68
2023/03/25 05:44:52;;;;;;;;;;;;;;;8.84;74.23;94910.63;5054091;28;1028;-68
2023/03/25 05:47:23;;;;;;;;;;;;;;;9.01;73.84;94906.25;5054048;28;1135;-69
2023/03/25 05:49:49;;;;;;;;;;;;;;;9.12;72.10;94903.31;5053581;28;1097;-68
2023/03/25 05:52:16;;;;;;;;;;;;;;;9.26;71.47;94896.53;5053781;28;1035;-68
2023/03/25 05:54:44;;;;;;;;;;;;;;;9.43;70.47;94892.97;5053635;28;1092;-68
2023/03/25 05:57:10;;;;;;;;;;;;;;;9.80;69.40;94894.41;5053489;28;1942;-68
2023/03/25 05:59:37;;;;;;;;;;;;;;;10.01;69.17;94893.97;5053506;28;1042;-68
2023/03/25 06:02:06;;;;;;;;;;;;;;;10.37;68.48;94893.72;5053549;28;1120;-68
2023/03/25 06:04:36;;;;;;;;;;;;;;;10.76;66.83;94893.06;5053609;28;1020;-68
2023/03/25 06:07:13;;;;;;;;;;;;;;;10.91;66.90;94887.88;5053656;28;1025;-68
2023/03/25 06:09:45;;;;;;;;;;;;;;;11.01;66.80;94890.34;5053475;28;1027;-68
2023/03/25 06:12:12;;;;;;;;;;;;;;;11.37;64.94;94895.28;5053357;28;1032;-69
2023/03/25 06:14:41;;;;;;;;;;;;;;;11.55;64.65;94895.03;5053644;28;965;-68
2023/03/25 06:17:09;;;;;;;;;;;;;;;11.96;63.73;94893.03;5052214;28;1996;-69
2023/03/25 06:19:37;;;;;;;;;;;;;;;12.17;63.05;94888.91;5051956;28;1020;-68
2023/03/25 06:22:05;;;;;;;;;;;;;;;12.13;62.78;94893.78;5053316;28;1032;-68
2023/03/25 06:28:19;;;;;;;;;;;;;;;13.09;60.49;94888.84;5053173;28;696;-67
2023/03/25 06:30:47;;;;;;;;;;;;;;;13.20;58.68;94890.22;5053174;28;1084;-68
2023/03/25 06:33:14;;;;;;;;;;;;;;;13.19;59.72;94899.31;5052927;28;1071;-69
2023/03/25 06:35:41;;;;;;;;;;;;;;;13.16;59.44;94895.13;5053221;28;1045;-69
2023/03/25 06:38:10;;;;;;;;;;;;;;;13.13;60.01;94891.97;5052953;28;2009;-68
2023/03/25 06:40:36;;;;;;;;;;;;;;;12.96;60.35;94894.81;5053126;28;957;-68
2023/03/25 06:43:03;;;;;;;;;;;;;;;13.24;59.94;94895.06;5053307;28;978;-68
2023/03/25 06:45:29;;;;;;;;;;;;;;;13.68;58.00;94893.44;5052775;28;1045;-69
2023/03/25 06:47:55;;;;;;;;;;;;;;;13.65;57.36;94897.28;5053104;28;997;-69
2023/03/25 06:50:21;;;;;;;;;;;;;;;13.90;57.17;94898.84;5053002;28;981;-69
2023/03/25 06:52:47;;;;;;;;;;;;;;;14.41;56.45;94905.03;5052796;28;1065;-69
2023/03/25 06:55:14;;;;;;;;;;;;;;;15.03;53.37;94900.88;5052747;28;1030;-69
2023/03/25 06:57:40;;;;;;;;;;;;;;;14.88;53.91;94904.69;5052768;28;1997;-69
2023/03/25 07:00:07;;;;;;;;;;;;;;;15.21;52.96;94896.88;5052792;28;1061;-69
2023/03/25 07:02:33;;;;;;;;;;;;;;;15.29;53.96;94894.03;5055336;28;1020;-69
2023/03/25 07:04:59;;;;;;;;;;;;;;;15.42;53.06;94893.28;5055587;28;1222;-69
2023/03/25 07:07:25;;;;;;;;;;;;;;;15.78;52.90;94898.53;5056969;28;1011;-69
2023/03/25 07:09:53;;;;;;;;;;;;;;;16.01;52.65;94894.66;5056874;28;1545;-69
2023/03/25 07:12:20;;;;;;;;;;;;;;;16.05;52.33;94890.56;5056885;28;942;-69
2023/03/25 07:14:56;;;;;;;;;;;;;;;16.35;51.19;94899.16;5056986;28;1023;-69
2023/03/25 07:17:22;;;;;;;;;;;;;;;16.71;51.18;94898.00;5056776;28;1906;-69
2023/03/25 07:19:49;;;;;;;;;;;;;;;16.68;49.94;94900.28;5056769;28;994;-69
2023/03/25 07:22:15;;;;;;;;;;;;;;;16.47;51.37;94891.31;5056730;28;962;-69
2023/03/25 07:24:41;;;;;;;;;;;;;;;16.95;51.76;94888.47;5056354;28;1245;-68
2023/03/25 07:27:09;;;;;;;;;;;;;;;17.27;50.53;94888.69;5056291;28;1078;-69
2023/03/25 07:29:35;;;;;;;;;;;;;;;17.33;50.08;94895.97;5056371;28;977;-68
2023/03/25 07:32:01;;;;;;;;;;;;;;;16.87;49.54;94894.09;5056322;28;1053;-68
2023/03/25 07:34:27;;;;;;;;;;;;;;;16.98;50.92;94879.16;5055197;28;1017;-68
2023/03/25 07:36:53;;;;;;;;;;;;;;;17.65;49.72;94893.41;5055217;28;1004;-68
2023/03/25 07:39:20;;;;;;;;;;;;;;;17.39;48.69;94888.06;5056162;28;1983;-68
2023/03/25 07:41:46;;;;;;;;;;;;;;;17.27;49.47;94886.00;5056242;28;1031;-68
2023/03/25 07:44:14;;;;;;;;;;;;;;;17.19;49.84;94872.72;5055981;28;1005;-68
2023/03/25 07:46:40;;;;;;;;;;;;;;;17.30;49.59;94882.88;5056325;28;1136;-68
2023/03/25 07:49:06;;;;;;;;;;;;;;;17.33;48.01;94873.53;5056158;28;1032;-68
2023/03/25 07:51:33;;;;;;;;;;;;;;;17.63;48.11;94873.06;5055885;28;1096;-67
2023/03/25 07:53:59;;;;;;;;;;;;;;;17.93;47.60;94879.66;5054999;28;1020;-67
2023/03/25 07:56:25;;;;;;;;;;;;;;;17.92;44.90;94879.84;5056320;28;1032;-68
2023/03/25 07:58:51;;;;;;;;;;;;;;;17.98;46.90;94870.88;5055749;28;1902;-67
2023/03/25 08:01:17;;;;;;;;;;;;;;;18.16;47.46;94866.66;5054790;28;1267;-63
2023/03/25 08:03:44;;;;;;;;;;;;;;;18.10;46.59;94865.66;5055724;28;1116;-66
2023/03/25 08:06:11;;;;;;;;;;;;;;;18.47;47.32;94864.00;5056103;28;989;-67
2023/03/25 08:08:37;;;;;;;;;;;;;;;18.83;45.37;94867.94;5055769;28;1105;-66
2023/03/25 08:11:03;;;;;;;;;;;;;;;18.76;44.93;94869.03;5055992;28;982;-67
2023/03/25 08:13:29;;;;;;;;;;;;;;;19.23;45.44;94862.22;5054641;28;981;-66
2023/03/25 08:15:56;;;;;;;;;;;;;;;19.22;43.21;94859.75;5054474;28;1308;-67
2023/03/25 08:18:22;;;;;;;;;;;;;;;19.06;45.96;94855.69;5055735;28;1991;-64
2023/03/25 08:20:49;;;;;;;;;;;;;;;18.66;45.63;94856.78;5055605;28;1054;-65
2023/03/25 08:23:17;;;;;;;;;;;;;;;17.92;47.23;94842.00;5055669;28;1245;-63
2023/03/25 08:25:43;;;;;;;;;;;;;;;17.95;45.59;94841.56;5055639;28;1109;-66
2023/03/25 08:28:09;;;;;;;;;;;;;;;17.61;48.51;94821.09;5055470;28;989;-65
2023/03/25 08:30:37;;;;;;;;;;;;;;;18.17;47.49;94820.44;5054469;28;978;-64
2023/03/25 08:33:07;;;;;;;;;;;;;;;18.57;46.50;94825.59;5055477;28;969;-68
2023/03/25 08:35:34;;;;;;;;;;;;;;;19.27;45.39;94825.50;5054067;28;1054;-67
2023/03/25 08:38:03;;;;;;;;;;;;;;;20.23;43.43;94825.91;5055480;28;1991;-68
2023/03/25 08:40:30;;;;;;;;;;;;;;;20.27;42.10;94824.38;5055157;28;1002;-68
2023/03/25 08:42:56;;;;;;;;;;;;;;;20.17;43.22;94818.69;5055395;28;1024;-63
2023/03/25 08:45:22;;;;;;;;;;;;;;;20.61;43.31;94818.53;5054057;28;1033;-64
2023/03/25 08:47:48;;;;;;;;;;;;;;;21.12;42.55;94814.38;5055131;28;1053;-64
2023/03/25 08:50:14;;;;;;;;;;;;;;;20.71;41.35;94812.53;5055083;28;1051;-63
2023/03/25 08:52:40;;;;;;;;;;;;;;;20.64;42.60;94801.75;5055082;28;1012;-64
2023/03/25 08:55:07;;;;;;;;;;;;;;;20.75;41.14;94798.22;5055033;28;1124;-63
2023/03/25 08:57:36;;;;;;;;;;;;;;;21.44;42.13;94795.03;5053816;28;1902;-65
2023/03/25 09:00:07;;;;;;;;;;;;;;;21.41;41.35;94790.00;5053943;28;1032;-64
2023/03/25 09:02:34;;;;;;;;;;;;;;;20.24;41.89;94781.41;5054886;28;1000;-64
2023/03/25 09:05:00;;;;;;;;;;;;;;;20.54;42.14;94777.84;5054757;28;1066;-65
2023/03/25 09:07:26;;;;;;;;;;;;;;;20.52;41.90;94771.00;5054671;28;1065;-64
2023/03/25 09:09:52;;;;;;;;;;;;;;;20.90;42.46;94767.91;5054612;28;1043;-64
2023/03/25 09:12:18;;;;;;;;;;;;;;;21.20;41.39;94775.13;5054730;28;937;-64
2023/03/25 09:14:44;;;;;;;;;;;;;;;21.50;41.59;94763.31;5054555;28;1113;-65
2023/03/25 09:17:10;;;;;;;;;;;;;;;21.56;39.73;94774.06;5053614;28;1914;-64
2023/03/25 09:19:36;;;;;;;;;;;;;;;21.31;40.59;94773.47;5054356;28;1109;-64
2023/03/25 09:22:03;;;;;;;;;;;;;;;21.42;40.89;94776.19;5054418;28;1152;-64
2023/03/25 09:24:32;;;;;;;;;;;;;;;21.83;41.63;94763.50;5053896;28;1598;-65
2023/03/25 09:26:59;;;;;;;;;;;;;;;22.22;40.53;94762.88;5054157;28;1248;-65
2023/03/25 09:29:26;;;;;;;;;;;;;;;22.50;39.98;94761.22;5054493;28;934;-65
2023/03/25 09:31:52;;;;;;;;;;;;;;;22.38;39.81;94755.84;5054210;28;1052;-65
2023/03/25 09:34:18;;;;;;;;;;;;;;;22.46;38.78;94758.19;5054158;28;973;-67
2023/03/25 09:36:44;;;;;;;;;;;;;;;22.45;38.67;94759.25;5054442;28;1037;-63
2023/03/25 09:39:10;;;;;;;;;;;;;;;22.57;39.22;94753.72;5054195;28;1914;-62
2023/03/25 09:41:36;;;;;;;;;;;;;;;23.08;38.47;94748.31;5054369;28;964;-62
2023/03/25 09:44:20;;;;;;;;;;;;;;;22.94;38.72;94750.53;5054038;28;1101;-63
2023/03/25 09:46:47;;;;;;;;;;;;;;;22.96;39.86;94751.13;5053052;28;989;-64
2023/03/25 09:49:16;;;;;;;;;;;;;;;22.89;38.10;94748.53;5053729;28;957;-63
2023/03/25 09:51:43;;;;;;;;;;;;;;;22.70;36.98;94745.22;5053762;28;1219;-63
2023/03/25 09:54:09;;;;;;;;;;;;;;;23.00;38.23;94738.63;5054059;28;1055;-64
2023/03/25 09:56:36;;;;;;;;;;;;;;;22.93;37.89;94724.34;5053750;28;1614;-64
2023/03/25 09:59:06;;;;;;;;;;;;;;;22.91;37.38;94731.94;5053848;28;1910;-63
2023/03/25 10:01:36;;;;;;;;;;;;;;;23.00;34.69;94736.72;5052466;28;985;-63
2023/03/25 10:04:16;;;;;;;;;;;;;;;23.06;36.35;94724.03;5053557;28;1081;-64
2023/03/25 10:06:48;;;;;;;;;;;;;;;22.33;36.66;94725.78;5053911;28;1065;-64
2023/03/25 10:09:22;;;;;;;;;;;;;;;21.77;38.11;94720.91;5053754;28;961;-64
2023/03/25 10:11:56;;;;;;;;;;;;;;;21.21;36.59;94720.53;5053784;28;1144;-64
2023/03/25 10:14:22;;;;;;;;;;;;;;;21.81;36.98;94710.34;5053432;28;1066;-64
2023/03/25 10:17:12;;;;;;;;;;;;;;;22.94;36.38;94706.94;5053129;28;1028;-64
2023/03/25 10:19:43;;;;;;;;;;;;;;;23.57;35.54;94711.09;5053343;28;1041;-64
2023/03/25 10:22:25;;;;;;;;;;;;;;;23.76;34.17;94710.81;5053367;28;1020;-64
2023/03/25 10:24:51;;;;;;;;;;;;;;;23.95;34.63;94697.66;5053228;28;1637;-65
2023/03/25 10:27:23;;;;;;;;;;;;;;;24.28;33.12;94688.47;5052868;28;1066;-64
2023/03/25 10:29:52;;;;;;;;;;;;;;;24.28;31.66;94704.03;5053431;28;1050;-65
2023/03/25 10:32:35;;;;;;;;;;;;;;;24.21;32.66;94693.31;5052926;28;1078;-65
2023/03/25 10:35:04;;;;;;;;;;;;;;;23.85;32.52;94695.66;5053429;28;1036;-64
2023/03/25 10:37:35;;;;;;;;;;;;;;;23.52;33.51;94686.50;5051349;28;1991;-66
2023/03/25 10:40:17;;;;;;;;;;;;;;;23.29;32.69;94682.09;5051922;28;1056;-66
2023/03/25 10:42:46;;;;;;;;;;;;;;;22.88;33.07;94673.31;5053260;28;960;-66
2023/03/25 10:45:13;;;;;;;;;;;;;;;23.22;32.82;94670.56;5053363;28;1032;-64
2023/03/25 10:47:42;;;;;;;;;;;;;;;23.05;33.01;94665.16;5053250;28;1016;-65
2023/03/25 10:50:14;;;;;;;;;;;;;;;22.95;31.75;94657.59;5052089;28;958;-64
2023/03/25 10:52:40;;;;;;;;;;;;;;;22.86;32.93;94659.13;5053312;28;1048;-65
2023/03/25 10:55:17;;;;;;;;;;;;;;;23.00;32.90;94654.94;5053290;28;965;-65
2023/03/25 10:57:44;;;;;;;;;;;;;;;22.84;32.43;94646.78;5052955;28;1914;-65
2023/03/25 11:00:17;;;;;;;;;;;;;;;23.05;33.01;94650.66;5053032;28;969;-65
2023/03/25 11:02:44;;;;;;;;;;;;;;;23.17;32.53;94644.03;5052780;28;969;-65
2023/03/25 11:05:13;;;;;;;;;;;;;;;23.57;32.87;94645.63;5052919;28;1041;-65
2023/03/25 11:07:42;;;;;;;;;;;;;;;23.59;31.18;94648.09;5053004;28;1194;-64
2023/03/25 11:10:14;;;;;;;;;;;;;;;23.66;33.02;94637.81;5053118;28;1008;-65
2023/03/25 11:12:45;;;;;;;;;;;;;;;23.83;32.60;94632.31;5052037;28;1024;-65
2023/03/25 11:15:13;;;;;;;;;;;;;;;23.55;31.42;94636.88;5052669;28;1057;-65
2023/03/25 11:17:39;;;;;;;;;;;;;;;23.24;32.51;94623.94;5052494;28;1983;-65
2023/03/25 11:20:09;;;;;;;;;;;;;;;23.04;31.78;94632.69;5051409;28;1030;-64
2023/03/25 11:22:37;;;;;;;;;;;;;;;22.89;30.92;94625.06;5052934;28;1083;-64
2023/03/25 11:25:06;;;;;;;;;;;;;;;22.95;32.54;94618.59;5051247;28;1360;-62
2023/03/25 11:27:39;;;;;;;;;;;;;;;22.64;31.25;94612.72;5052232;28;1078;-63
2023/03/25 11:30:13;;;;;;;;;;;;;;;22.61;31.01;94608.59;5052511;28;1041;-61
2023/03/25 11:32:40;;;;;;;;;;;;;;;22.75;31.87;94609.06;5052810;28;985;-63
2023/03/25 11:35:27;;;;;;;;;;;;;;;23.08;33.36;94601.91;5052690;28;1037;-65
2023/03/25 11:37:58;;;;;;;;;;;;;;;23.36;33.11;94600.09;5052333;28;1914;-65
2023/03/25 11:40:25;;;;;;;;;;;;;;;23.50;32.72;94598.59;5052664;28;1029;-66
2023/03/25 11:42:53;;;;;;;;;;;;;;;23.45;32.92;94595.84;5052625;28;986;-64
2023/03/25 11:45:21;;;;;;;;;;;;;;;23.25;33.90;94592.88;5052480;28;1005;-64
2023/03/25 11:47:47;;;;;;;;;;;;;;;23.07;33.76;94588.53;5053519;28;985;-67
2023/03/25 11:50:24;;;;;;;;;;;;;;;23.04;33.28;94583.59;5054829;28;1041;-64
2023/03/25 11:53:00;;;;;;;;;;;;;;;22.89;32.28;94587.72;5056069;28;961;-65
2023/03/25 11:55:27;;;;;;;;;;;;;;;22.86;32.63;94579.22;5056098;28;1002;-66
2023/03/25 11:57:58;;;;;;;;;;;;;;;23.12;33.09;94581.25;5054929;28;1989;-66
2023/03/25 12:00:24;;;;;;;;;;;;;;;23.24;32.61;94578.41;5055973;28;1013;-65
2023/03/25 12:02:59;;;;;;;;;;;;;;;23.15;33.18;94579.94;5056087;28;985;-65
2023/03/25 12:05:25;;;;;;;;;;;;;;;23.01;32.45;94563.06;5055726;28;1113;-65
2023/03/25 12:07:59;;;;;;;;;;;;;;;22.91;32.30;94560.22;5054903;28;1032;-62
2023/03/25 12:10:41;;;;;;;;;;;;;;;22.81;33.09;94559.00;5055851;28;1035;-63
2023/03/25 12:13:07;;;;;;;;;;;;;;;22.67;32.46;94568.66;5055839;28;989;-63
2023/03/25 12:15:52;;;;;;;;;;;;;;;22.68;32.27;94562.09;5054357;28;1057;-62
2023/03/25 12:18:18;;;;;;;;;;;;;;;22.86;32.47;94552.81;5055346;28;1989;-62
2023/03/25 12:20:44;;;;;;;;;;;;;;;22.91;32.61;94552.88;5055817;28;1006;-62
2023/03/25 12:23:10;;;;;;;;;;;;;;;22.78;32.44;94559.53;5055325;28;1605;-63
2023/03/25 12:25:48;;;;;;;;;;;;;;;22.67;31.81;94557.75;5055718;28;1055;-64
2023/03/25 12:28:23;;;;;;;;;;;;;;;22.45;31.94;94556.88;5055364;28;1038;-63
2023/03/25 12:30:55;;;;;;;;;;;;;;;22.36;31.48;94553.72;5055317;28;807;-63
2023/03/25 12:33:25;;;;;;;;;;;;;;;22.18;33.15;94549.34;5053948;28;1092;-62
2023/03/25 12:35:54;;;;;;;;;;;;;;;22.17;32.42;94555.88;5055424;28;976;-62
2023/03/25 12:38:33;;;;;;;;;;;;;;;22.15;32.29;94552.56;5055348;28;1918;-61
2023/03/25 12:41:14;;;;;;;;;;;;;;;22.11;32.20;94554.97;5055146;28;953;-62
2023/03/25 12:43:43;;;;;;;;;;;;;;;22.16;30.85;94556.94;5055400;28;1044;-66
2023/03/25 12:46:28;;;;;;;;;;;;;;;22.22;31.36;94556.75;5054193;28;946;-65
2023/03/25 12:49:17;;;;;;;;;;;;;;;22.32;30.87;94560.75;5054206;28;1140;-68
2023/03/25 12:51:59;;;;;;;;;;;;;;;22.27;30.45;94558.78;5054793;28;1271;-63
2023/03/25 12:54:34;;;;;;;;;;;;;;;22.16;30.57;94562.41;5053758;28;1042;-63
2023/03/25 12:57:15;;;;;;;;;;;;;;;21.94;30.28;94565.84;5054913;28;1041;-61
2023/03/25 12:59:44;;;;;;;;;;;;;;;21.81;30.81;94566.97;5054172;28;1954;-61
2023/03/25 13:02:10;;;;;;;;;;;;;;;21.75;30.70;94553.53;5054801;28;1042;-64
2023/03/25 13:04:55;;;;;;;;;;;;;;;21.64;31.00;94566.13;5055030;28;1060;-63
2023/03/25 13:07:27;;;;;;;;;;;;;;;21.49;31.15;94563.94;5054640;28;1026;-65
2023/03/25 13:09:59;;;;;;;;;;;;;;;21.31;31.01;94564.94;5055023;28;1021;-63
2023/03/25 13:13:04;;;;;;;;;;;;;;;21.17;31.30;94567.13;5054855;28;974;-64
2023/03/25 13:15:39;;;;;;;;;;;;;;;21.01;31.52;94573.31;5012454;28;1300;-64
2023/03/25 13:18:31;;;;;;;;;;;;;;;20.79;31.89;94565.81;5012573;28;1918;-62
2023/03/25 13:21:07;;;;;;;;;;;;;;;20.56;32.21;94579.38;5040160;28;1067;-64